createdAt,value
2018-09-26T00:02:15.611Z,80.20
2018-09-26T00:04:43.095Z,80.30
2018-09-26T00:07:10.442Z,80.40
2018-09-26T00:09:37.818Z,80.90
2018-09-26T00:12:05.352Z,81.20
2018-09-26T00:14:32.809Z,81.60
2018-09-26T00:17:00.129Z,81.20
2018-09-26T00:19:27.461Z,81.40
2018-09-26T00:21:54.799Z,81.10
2018-09-26T00:24:22.144Z,81.00
2018-09-26T00:26:49.452Z,81.50
2018-09-26T00:29:16.815Z,80.10
2018-09-26T00:31:44.133Z,80.30
2018-09-26T00:34:11.447Z,80.40
2018-09-26T00:36:38.793Z,80.80
2018-09-26T00:39:06.634Z,80.80
2018-09-26T00:41:34.012Z,80.90
2018-09-26T00:44:01.324Z,80.40
2018-09-26T00:46:28.636Z,80.00
2018-09-26T00:48:55.943Z,79.90
2018-09-26T00:51:23.259Z,80.80
2018-09-26T00:53:50.606Z,81.50
2018-09-26T00:56:17.944Z,81.40
2018-09-26T00:58:45.246Z,81.80
2018-09-26T01:01:12.571Z,81.80
2018-09-26T01:03:39.915Z,81.00
2018-09-26T01:06:07.270Z,81.50
2018-09-26T01:08:34.617Z,81.60
2018-09-26T01:11:01.931Z,81.60
2018-09-26T01:13:29.283Z,81.40
2018-09-26T01:15:56.689Z,81.00
2018-09-26T01:18:24.039Z,81.40
2018-09-26T01:20:51.391Z,81.80
2018-09-26T01:23:18.694Z,81.10
2018-09-26T01:25:46.032Z,81.10
2018-09-26T01:28:13.359Z,80.50
2018-09-26T01:30:40.697Z,79.40
2018-09-26T01:33:08.058Z,80.50
2018-09-26T01:35:35.463Z,80.80
2018-09-26T01:38:02.781Z,81.70
2018-09-26T01:40:30.152Z,81.20
2018-09-26T01:42:57.527Z,81.20
2018-09-26T01:45:25.216Z,81.90
2018-09-26T01:47:52.527Z,81.10
2018-09-26T01:50:19.880Z,80.10
2018-09-26T01:52:47.227Z,80.80
2018-09-26T01:55:14.534Z,82.00
2018-09-26T01:57:41.860Z,82.20
2018-09-26T02:00:09.191Z,81.40
2018-09-26T02:02:36.524Z,81.20
2018-09-26T02:05:03.847Z,81.40
2018-09-26T02:07:31.190Z,81.40
2018-09-26T02:09:58.515Z,81.00
2018-09-26T02:12:25.845Z,80.90
2018-09-26T02:14:53.192Z,81.40
2018-09-26T02:17:20.503Z,81.80
2018-09-26T02:19:47.806Z,81.80
2018-09-26T02:22:15.149Z,81.40
2018-09-26T02:24:42.477Z,81.70
2018-09-26T02:27:09.819Z,81.60
2018-09-26T02:29:37.151Z,80.90
2018-09-26T02:32:04.511Z,81.20
2018-09-26T02:34:31.831Z,81.50
2018-09-26T02:36:59.164Z,82.00
2018-09-26T02:39:26.473Z,81.90
2018-09-26T02:41:53.813Z,82.20
2018-09-26T02:44:21.187Z,82.30
2018-09-26T02:46:48.512Z,82.20
2018-09-26T02:49:15.901Z,81.90
2018-09-26T02:51:43.204Z,81.50
2018-09-26T02:54:10.536Z,81.40
2018-09-26T02:56:37.877Z,81.70
2018-09-26T02:59:05.203Z,81.50
2018-09-26T03:01:32.527Z,81.60
2018-09-26T03:03:59.872Z,82.30
2018-09-26T03:06:27.191Z,82.80
2018-09-26T03:08:54.497Z,82.70
2018-09-26T03:11:21.919Z,82.60
2018-09-26T03:13:49.251Z,81.20
2018-09-26T03:16:16.589Z,81.60
2018-09-26T03:18:43.958Z,81.80
2018-09-26T03:21:11.303Z,82.30
2018-09-26T03:23:38.611Z,81.20
2018-09-26T03:26:05.986Z,81.00
2018-09-26T03:28:33.326Z,81.30
2018-09-26T03:31:00.659Z,82.20
2018-09-26T03:33:27.999Z,82.20
2018-09-26T03:35:55.319Z,81.30
2018-09-26T03:38:22.660Z,80.40
2018-09-26T03:40:50.000Z,81.80
2018-09-26T03:43:17.355Z,82.60
2018-09-26T03:45:44.671Z,82.10
2018-09-26T03:48:12.078Z,82.20
2018-09-26T03:50:39.464Z,82.50
2018-09-26T03:53:06.778Z,82.70
2018-09-26T03:55:34.099Z,82.60
2018-09-26T03:58:01.428Z,82.20
2018-09-26T04:00:28.783Z,81.80
2018-09-26T04:02:56.101Z,81.60
2018-09-26T04:05:23.443Z,81.80
2018-09-26T04:07:50.761Z,81.30
2018-09-26T04:10:18.096Z,82.50
2018-09-26T04:12:45.411Z,82.90
2018-09-26T04:15:12.708Z,82.20
2018-09-26T04:17:40.048Z,82.10
2018-09-26T04:20:07.377Z,82.20
2018-09-26T04:22:34.772Z,81.80
2018-09-26T04:25:02.121Z,82.00
2018-09-26T04:27:29.594Z,81.00
2018-09-26T04:29:56.822Z,80.40
2018-09-26T04:32:24.201Z,81.50
2018-09-26T04:34:51.521Z,82.00
2018-09-26T04:37:18.846Z,81.90
2018-09-26T04:39:46.180Z,82.50
2018-09-26T04:42:13.523Z,82.40
2018-09-26T04:44:40.848Z,81.90
2018-09-26T04:47:08.336Z,81.80
2018-09-26T04:49:35.666Z,82.00
2018-09-26T04:52:02.991Z,82.30
2018-09-26T04:54:30.320Z,81.30
2018-09-26T04:56:57.651Z,81.10
2018-09-26T04:59:25.012Z,82.10
2018-09-26T05:01:52.328Z,82.20
2018-09-26T05:04:19.655Z,82.50
2018-09-26T05:06:47.008Z,82.50
2018-09-26T05:09:14.308Z,83.30
2018-09-26T05:11:41.647Z,83.30
2018-09-26T05:14:08.998Z,83.20
2018-09-26T05:16:36.315Z,83.10
2018-09-26T05:19:03.659Z,82.20
2018-09-26T05:21:30.987Z,82.10
2018-09-26T05:23:58.332Z,81.60
2018-09-26T05:26:25.660Z,82.20
2018-09-26T05:28:52.995Z,82.20
2018-09-26T05:31:20.315Z,82.60
2018-09-26T05:33:47.667Z,82.50
2018-09-26T05:36:15.079Z,82.00
2018-09-26T05:38:42.452Z,81.70
2018-09-26T05:41:09.772Z,82.20
2018-09-26T05:43:37.127Z,82.40
2018-09-26T05:46:04.465Z,82.50
2018-09-26T05:48:31.838Z,82.90
2018-09-26T05:50:59.171Z,83.00
2018-09-26T05:53:26.574Z,82.80
2018-09-26T05:55:53.902Z,82.40
2018-09-26T05:58:21.259Z,82.10
2018-09-26T06:00:48.631Z,81.80
2018-09-26T06:03:15.982Z,81.60
2018-09-26T06:05:43.340Z,81.60
2018-09-26T06:08:10.649Z,81.50
2018-09-26T06:10:38.186Z,81.50
2018-09-26T06:13:05.577Z,80.90
2018-09-26T06:15:32.871Z,81.00
2018-09-26T06:18:00.209Z,80.40
2018-09-26T06:20:27.532Z,79.40
2018-09-26T06:22:54.862Z,79.20
2018-09-26T06:25:22.249Z,80.20
2018-09-26T06:27:49.576Z,79.10
2018-09-26T06:30:17.027Z,78.70
2018-09-26T06:32:44.351Z,78.40
2018-09-26T06:35:11.720Z,78.80
2018-09-26T06:37:39.044Z,78.90
2018-09-26T06:40:06.572Z,78.30
2018-09-26T06:42:34.026Z,77.90
2018-09-26T06:45:01.448Z,78.40
2018-09-26T06:47:28.848Z,78.40
2018-09-26T06:49:56.166Z,78.50
2018-09-26T06:52:23.482Z,78.80
2018-09-26T06:54:50.820Z,78.80
2018-09-26T06:57:18.188Z,77.50
2018-09-26T06:59:45.521Z,77.00
2018-09-26T07:02:12.867Z,75.60
2018-09-26T07:04:40.191Z,74.30
2018-09-26T07:07:07.499Z,74.50
2018-09-26T07:09:34.861Z,72.50
2018-09-26T07:12:02.180Z,71.60
2018-09-26T07:14:29.496Z,71.70
2018-09-26T07:16:56.819Z,72.00
2018-09-26T07:19:24.178Z,72.10
2018-09-26T07:21:51.595Z,72.00
2018-09-26T07:24:18.957Z,71.70
2018-09-26T07:26:46.243Z,71.50
2018-09-26T07:29:13.551Z,70.40
2018-09-26T07:31:40.872Z,70.00
2018-09-26T07:34:08.218Z,70.10
2018-09-26T07:36:35.530Z,69.90
2018-09-26T07:39:04.223Z,69.60
2018-09-26T07:41:31.541Z,69.00
2018-09-26T07:43:58.864Z,68.40
2018-09-26T07:46:26.221Z,68.50
2018-09-26T07:48:53.555Z,68.40
2018-09-26T07:51:20.905Z,68.50
2018-09-26T07:53:48.271Z,68.40
2018-09-26T07:56:15.604Z,68.50
2018-09-26T07:58:42.947Z,68.50
2018-09-26T08:01:10.313Z,68.10
2018-09-26T08:03:37.632Z,67.50
2018-09-26T08:06:05.015Z,66.90
2018-09-26T08:08:32.271Z,65.10
2018-09-26T08:10:59.607Z,64.60
2018-09-26T08:13:26.963Z,64.00
2018-09-26T08:15:54.293Z,63.90
2018-09-26T08:18:21.647Z,65.30
2018-09-26T08:20:48.968Z,65.00
2018-09-26T08:23:16.315Z,64.50
2018-09-26T08:25:43.625Z,63.20
2018-09-26T08:28:10.970Z,63.50
2018-09-26T08:30:38.281Z,63.30
2018-09-26T08:33:05.607Z,62.90
2018-09-26T08:35:32.957Z,63.00
2018-09-26T08:38:00.288Z,62.10
2018-09-26T08:40:27.610Z,61.90
2018-09-26T08:42:54.937Z,62.80
2018-09-26T08:45:22.300Z,62.70
2018-09-26T08:47:49.669Z,62.10
2018-09-26T08:50:17.015Z,61.90
2018-09-26T08:52:44.366Z,62.20
2018-09-26T08:55:11.684Z,62.40
2018-09-26T08:57:39.123Z,61.00
2018-09-26T09:00:06.967Z,60.50
2018-09-26T09:02:34.308Z,61.70
2018-09-26T09:05:01.650Z,61.20
2018-09-26T09:07:29.077Z,61.80
2018-09-26T09:09:56.427Z,60.30
2018-09-26T09:12:23.792Z,60.70
2018-09-26T09:14:51.353Z,61.00
2018-09-26T09:17:18.464Z,61.00
2018-09-26T09:19:45.783Z,60.60
2018-09-26T09:22:13.139Z,61.00
2018-09-26T09:24:40.484Z,61.60
2018-09-26T09:27:07.856Z,61.30
2018-09-26T09:29:35.283Z,61.00
2018-09-26T09:32:02.659Z,59.70
2018-09-26T09:34:29.997Z,58.10
2018-09-26T09:36:57.416Z,58.20
2018-09-26T09:39:24.752Z,59.60
2018-09-26T09:41:52.126Z,57.90
2018-09-26T09:44:19.546Z,58.10
2018-09-26T09:46:46.979Z,57.50
2018-09-26T09:49:14.332Z,57.30
2018-09-26T09:51:41.792Z,55.90
2018-09-26T09:54:09.229Z,55.60
2018-09-26T09:56:37.008Z,56.10
2018-09-26T09:59:04.500Z,56.50
2018-09-26T10:01:31.935Z,54.20
2018-09-26T10:03:59.304Z,56.20
2018-09-26T10:06:26.739Z,56.30
2018-09-26T10:08:54.302Z,56.00
2018-09-26T10:11:21.604Z,55.90
2018-09-26T10:13:48.943Z,55.90
2018-09-26T10:16:16.318Z,55.60
2018-09-26T10:18:43.672Z,55.60
2018-09-26T10:21:11.003Z,54.80
2018-09-26T10:23:39.348Z,54.80
2018-09-26T10:26:07.237Z,54.50
2018-09-26T10:28:35.250Z,55.20
2018-09-26T10:31:03.035Z,54.90
2018-09-26T10:33:30.372Z,54.60
2018-09-26T10:35:57.984Z,53.60
2018-09-26T10:38:25.375Z,54.00
2018-09-26T10:40:52.679Z,53.90
2018-09-26T10:43:20.040Z,53.80
2018-09-26T10:45:47.421Z,53.60
2018-09-26T10:48:15.888Z,53.30
2018-09-26T10:50:43.371Z,53.00
2018-09-26T10:53:14.891Z,52.40
2018-09-26T10:55:42.239Z,54.30
2018-09-26T10:58:09.560Z,54.00
2018-09-26T11:00:36.893Z,53.40
2018-09-26T11:03:04.244Z,53.10
2018-09-26T11:05:31.642Z,52.70
2018-09-26T11:07:58.967Z,53.30
2018-09-26T11:10:26.364Z,53.70
2018-09-26T11:12:53.736Z,52.30
2018-09-26T11:15:21.136Z,52.40
2018-09-26T11:17:48.444Z,53.20
2018-09-26T11:20:15.859Z,53.30
2018-09-26T11:22:43.140Z,53.20
2018-09-26T11:25:10.447Z,52.80
2018-09-26T11:27:37.785Z,51.50
2018-09-26T11:30:05.112Z,52.10
2018-09-26T11:32:32.419Z,52.20
2018-09-26T11:34:59.895Z,52.30
2018-09-26T11:37:27.284Z,54.30
2018-09-26T11:39:54.602Z,54.10
2018-09-26T11:42:22.026Z,54.50
2018-09-26T11:44:49.485Z,54.50
2018-09-26T11:47:16.792Z,53.90
2018-09-26T11:49:44.209Z,53.50
2018-09-26T11:52:11.539Z,53.70
2018-09-26T11:54:38.839Z,53.90
2018-09-26T11:57:06.239Z,53.50
2018-09-26T11:59:33.680Z,53.50
2018-09-26T12:02:01.018Z,52.70
2018-09-26T12:04:28.324Z,53.30
2018-09-26T12:06:55.755Z,53.90
2018-09-26T12:09:23.104Z,52.40
2018-09-26T12:11:50.419Z,52.70
2018-09-26T12:14:17.782Z,53.00
2018-09-26T12:16:45.179Z,52.30
2018-09-26T12:19:12.632Z,52.30
2018-09-26T12:21:39.944Z,52.00
2018-09-26T12:24:07.404Z,51.00
2018-09-26T12:26:41.358Z,51.00
2018-09-26T12:29:08.852Z,50.60
2018-09-26T12:31:36.219Z,51.80
2018-09-26T12:34:03.535Z,51.00
2018-09-26T12:36:30.875Z,51.50
2018-09-26T12:38:58.177Z,52.80
2018-09-26T12:41:25.625Z,52.60
2018-09-26T12:43:52.937Z,52.10
2018-09-26T12:46:20.317Z,51.80
2018-09-26T12:48:47.604Z,51.20
2018-09-26T12:51:14.908Z,51.60
2018-09-26T12:53:42.311Z,52.30
2018-09-26T12:56:09.563Z,52.20
2018-09-26T12:58:36.984Z,52.30
2018-09-26T13:01:04.391Z,51.90
2018-09-26T13:03:31.763Z,52.30
2018-09-26T13:05:59.055Z,52.80
2018-09-26T13:08:26.473Z,52.40
2018-09-26T13:10:53.772Z,50.40
2018-09-26T13:13:21.147Z,50.60
2018-09-26T13:15:48.487Z,50.30
2018-09-26T13:18:15.898Z,51.30
2018-09-26T13:20:43.165Z,51.30
2018-09-26T13:23:10.478Z,54.10
2018-09-26T13:25:37.842Z,53.20
2018-09-26T13:28:05.206Z,52.60
2018-09-26T13:30:32.520Z,52.20
2018-09-26T13:32:59.849Z,51.80
2018-09-26T13:35:27.155Z,50.50
2018-09-26T13:37:54.496Z,51.10
2018-09-26T13:40:22.037Z,52.00
2018-09-26T13:42:49.374Z,50.80
2018-09-26T13:45:16.683Z,51.20
2018-09-26T13:47:44.043Z,51.50
2018-09-26T13:50:11.375Z,51.40
2018-09-26T13:52:38.671Z,51.50
2018-09-26T13:55:06.016Z,51.80
2018-09-26T13:57:33.344Z,52.00
2018-09-26T14:00:00.657Z,50.00
2018-09-26T14:02:28.109Z,50.40
2018-09-26T14:04:55.300Z,51.20
2018-09-26T14:07:22.635Z,50.40
2018-09-26T14:09:49.973Z,51.40
2018-09-26T14:12:17.372Z,51.50
2018-09-26T14:14:44.655Z,51.60
2018-09-26T14:17:11.992Z,51.80
2018-09-26T14:19:44.489Z,52.50
2018-09-26T14:22:11.874Z,51.80
2018-09-26T14:24:39.243Z,52.70
2018-09-26T14:27:06.605Z,52.00
2018-09-26T14:29:34.008Z,52.10
2018-09-26T14:32:01.397Z,51.30
2018-09-26T14:34:28.791Z,51.20
2018-09-26T14:36:56.134Z,51.50
2018-09-26T14:39:23.655Z,52.80
2018-09-26T14:41:50.928Z,52.40
2018-09-26T14:44:18.382Z,53.40
2018-09-26T14:46:45.712Z,53.10
2018-09-26T14:49:13.219Z,53.00
2018-09-26T14:51:40.523Z,53.00
2018-09-26T14:54:07.922Z,52.60
2018-09-26T14:56:35.296Z,52.50
2018-09-26T14:59:02.689Z,52.40
2018-09-26T15:01:30.086Z,52.30
2018-09-26T15:03:57.440Z,52.40
2018-09-26T15:06:24.831Z,51.40
2018-09-26T15:08:52.204Z,52.10
2018-09-26T15:11:19.922Z,52.10
2018-09-26T15:13:47.280Z,51.60
2018-09-26T15:16:14.670Z,53.10
2018-09-26T15:18:42.035Z,52.50
2018-09-26T15:21:09.467Z,53.00
2018-09-26T15:23:36.830Z,53.50
2018-09-26T15:26:04.249Z,53.80
2018-09-26T15:28:31.642Z,53.50
2018-09-26T15:30:58.963Z,52.80
2018-09-26T15:33:26.391Z,51.50
2018-09-26T15:35:53.813Z,52.50
2018-09-26T15:38:21.187Z,53.00
2018-09-26T15:40:48.546Z,52.50
2018-09-26T15:43:15.947Z,52.40
2018-09-26T15:45:43.420Z,53.20
2018-09-26T15:48:10.874Z,52.70
2018-09-26T15:50:38.252Z,52.90
2018-09-26T15:53:05.656Z,52.80
2018-09-26T15:55:33.131Z,50.90
2018-09-26T15:58:00.411Z,49.40
2018-09-26T16:00:27.791Z,49.60
2018-09-26T16:02:55.201Z,50.30
2018-09-26T16:05:22.459Z,51.30
2018-09-26T16:07:49.771Z,50.70
2018-09-26T16:10:17.308Z,49.40
2018-09-26T16:12:44.652Z,51.20
2018-09-26T16:15:11.954Z,50.60
2018-09-26T16:17:39.279Z,50.30
2018-09-26T16:20:06.636Z,47.50
2018-09-26T16:22:33.984Z,46.70
2018-09-26T16:25:01.393Z,46.30
2018-09-26T16:27:28.758Z,46.60
2018-09-26T16:29:56.144Z,47.60
2018-09-26T16:32:23.595Z,47.30
2018-09-26T16:34:50.839Z,49.20
2018-09-26T16:37:18.237Z,50.60
2018-09-26T16:39:45.681Z,51.00
2018-09-26T16:42:13.091Z,51.50
2018-09-26T16:44:40.423Z,52.70
2018-09-26T16:47:07.839Z,54.50
2018-09-26T16:49:35.216Z,53.10
2018-09-26T16:52:02.553Z,53.40
2018-09-26T16:54:29.859Z,54.40
2018-09-26T16:56:57.255Z,55.30
2018-09-26T16:59:24.551Z,55.50
2018-09-26T17:01:51.855Z,55.50
2018-09-26T17:04:19.218Z,55.30
2018-09-26T17:06:46.551Z,56.30
2018-09-26T17:09:13.883Z,57.20
2018-09-26T17:11:41.230Z,57.20
2018-09-26T17:14:08.761Z,56.90
2018-09-26T17:16:36.082Z,57.20
2018-09-26T17:19:03.566Z,57.40
2018-09-26T17:21:30.870Z,58.10
2018-09-26T17:23:58.357Z,59.10
2018-09-26T17:26:25.865Z,60.50
2018-09-26T17:28:53.217Z,60.10
2018-09-26T17:31:20.691Z,62.00
2018-09-26T17:33:48.058Z,61.90
2018-09-26T17:36:15.487Z,64.00
2018-09-26T17:39:13.916Z,62.70
2018-09-26T17:41:41.241Z,64.70
2018-09-26T17:44:08.651Z,64.60
2018-09-26T17:46:36.091Z,64.80
2018-09-26T17:49:03.386Z,64.60
2018-09-26T17:51:30.743Z,65.20
2018-09-26T17:53:58.105Z,65.30
2018-09-26T17:56:25.483Z,65.50
2018-09-26T17:58:52.840Z,64.80
2018-09-26T18:01:20.226Z,65.20
2018-09-26T18:03:47.488Z,65.60
2018-09-26T18:06:14.803Z,64.70
2018-09-26T18:08:42.178Z,65.10
2018-09-26T18:11:09.491Z,65.90
2018-09-26T18:13:36.820Z,65.10
2018-09-26T18:16:04.177Z,65.00
2018-09-26T18:18:31.527Z,65.30
2018-09-26T18:20:58.867Z,65.70
2018-09-26T18:23:26.252Z,66.30
2018-09-26T18:25:53.579Z,66.00
2018-09-26T18:28:21.024Z,66.20
2018-09-26T18:30:48.372Z,66.60
2018-09-26T18:33:15.722Z,67.20
2018-09-26T18:35:43.044Z,66.60
2018-09-26T18:38:10.367Z,66.60
2018-09-26T18:40:37.707Z,67.80
2018-09-26T18:43:05.122Z,67.70
2018-09-26T18:45:32.479Z,67.00
2018-09-26T18:47:59.871Z,67.70
2018-09-26T18:50:27.175Z,68.00
2018-09-26T18:52:54.510Z,67.80
2018-09-26T18:55:21.836Z,68.60
2018-09-26T18:57:49.143Z,69.10
2018-09-26T19:00:16.568Z,68.90
2018-09-26T19:02:43.938Z,68.00
2018-09-26T19:05:11.391Z,68.80
2018-09-26T19:07:38.699Z,69.30
2018-09-26T19:10:06.042Z,69.10
2018-09-26T19:12:33.430Z,69.30
2018-09-26T19:15:00.742Z,70.10
2018-09-26T19:17:28.091Z,69.80
2018-09-26T19:19:55.423Z,69.40
2018-09-26T19:22:22.856Z,70.00
2018-09-26T19:24:50.182Z,71.10
2018-09-26T19:27:17.540Z,70.40
2018-09-26T19:29:44.823Z,70.60
2018-09-26T19:32:12.184Z,69.40
2018-09-26T19:34:39.517Z,69.30
2018-09-26T19:37:06.852Z,69.90
2018-09-26T19:39:34.459Z,70.30
2018-09-26T19:42:01.783Z,70.40
2018-09-26T19:44:30.072Z,71.00
2018-09-26T19:46:57.523Z,71.30
2018-09-26T19:49:24.955Z,71.80
2018-09-26T19:51:52.283Z,72.70
2018-09-26T19:54:20.058Z,72.00
2018-09-26T19:56:47.504Z,72.50
2018-09-26T19:59:14.819Z,73.10
2018-09-26T20:01:42.254Z,73.60
2018-09-26T20:04:10.171Z,72.20
2018-09-26T20:06:37.509Z,71.50
2018-09-26T20:09:07.715Z,71.00
2018-09-26T20:11:35.095Z,70.60
2018-09-26T20:14:02.435Z,71.00
2018-09-26T20:16:29.996Z,71.70
2018-09-26T20:18:57.284Z,72.30
2018-09-26T20:21:24.580Z,71.50
2018-09-26T20:23:51.930Z,71.60
2018-09-26T20:26:19.244Z,72.00
2018-09-26T20:28:46.637Z,71.70
2018-09-26T20:31:13.934Z,71.90
2018-09-26T20:33:41.252Z,72.30
2018-09-26T20:36:08.580Z,72.40
2018-09-26T20:38:35.980Z,72.90
2018-09-26T20:41:03.335Z,72.80
2018-09-26T20:43:30.656Z,74.90
2018-09-26T20:45:57.983Z,74.70
2018-09-26T20:48:25.651Z,74.50
2018-09-26T20:50:52.988Z,73.80
2018-09-26T20:53:20.339Z,73.90
2018-09-26T20:55:47.930Z,73.60
2018-09-26T20:58:15.349Z,72.80
2018-09-26T21:00:42.821Z,73.60
2018-09-26T21:03:10.036Z,73.90
2018-09-26T21:05:37.371Z,73.20
2018-09-26T21:08:04.847Z,74.50
2018-09-26T21:10:32.376Z,74.50
2018-09-26T21:12:59.715Z,73.80
2018-09-26T21:15:27.054Z,73.60
2018-09-26T21:17:54.406Z,73.20
2018-09-26T21:20:21.695Z,73.70
2018-09-26T21:22:49.004Z,74.10
2018-09-26T21:25:16.336Z,73.90
2018-09-26T21:27:43.792Z,74.00
2018-09-26T21:30:11.156Z,73.80
2018-09-26T21:32:38.458Z,74.10
2018-09-26T21:35:05.942Z,74.90
2018-09-26T21:37:33.311Z,75.30
2018-09-26T21:40:01.229Z,75.30
2018-09-26T21:42:28.728Z,74.10
2018-09-26T21:44:56.303Z,74.20
2018-09-26T21:47:23.680Z,73.00
2018-09-26T21:49:51.071Z,73.50
2018-09-26T21:52:18.413Z,73.90
2018-09-26T21:54:45.904Z,73.80
2018-09-26T21:57:13.239Z,74.00
2018-09-26T21:59:40.577Z,74.40
2018-09-26T22:02:08.006Z,75.50
2018-09-26T22:04:35.344Z,75.60
2018-09-26T22:07:02.639Z,75.90
2018-09-26T22:09:29.943Z,76.20
2018-09-26T22:11:57.287Z,76.20
2018-09-26T22:14:24.627Z,74.80
2018-09-26T22:16:51.991Z,74.60
2018-09-26T22:19:19.338Z,75.20
2018-09-26T22:21:46.765Z,75.30
2018-09-26T22:24:14.214Z,75.20
2018-09-26T22:26:41.526Z,75.30
2018-09-26T22:29:09.115Z,75.90
2018-09-26T22:31:36.423Z,75.60
2018-09-26T22:34:03.723Z,75.90
2018-09-26T22:36:31.074Z,75.40
2018-09-26T22:38:58.388Z,76.00
2018-09-26T22:41:26.528Z,75.60
2018-09-26T22:43:53.863Z,75.90
2018-09-26T22:46:21.187Z,75.60
2018-09-26T22:48:48.539Z,74.80
2018-09-26T22:51:15.903Z,75.90
2018-09-26T22:53:43.213Z,75.80
2018-09-26T22:56:10.528Z,76.00
2018-09-26T22:58:37.858Z,75.90
2018-09-26T23:01:05.192Z,76.10
2018-09-26T23:03:32.563Z,75.60
2018-09-26T23:05:59.904Z,75.30
2018-09-26T23:08:27.238Z,75.80
2018-09-26T23:10:54.608Z,75.30
2018-09-26T23:13:21.953Z,75.00
2018-09-26T23:15:49.288Z,75.50
2018-09-26T23:18:16.616Z,76.10
2018-09-26T23:20:44.035Z,76.00
2018-09-26T23:23:11.322Z,76.30
2018-09-26T23:25:38.677Z,76.30
2018-09-26T23:28:06.050Z,77.10
2018-09-26T23:30:33.355Z,77.30
2018-09-26T23:33:00.693Z,77.50
2018-09-26T23:35:28.003Z,76.70
2018-09-26T23:37:55.355Z,76.90
2018-09-26T23:40:22.667Z,77.30
2018-09-26T23:42:49.976Z,77.00
2018-09-26T23:45:17.311Z,77.20
2018-09-26T23:47:44.632Z,79.00
2018-09-26T23:50:11.945Z,78.30
2018-09-26T23:52:39.280Z,77.10
2018-09-26T23:55:06.596Z,77.20
2018-09-26T23:57:33.940Z,78.00
